sensor_id;sensor_type;location;lat;lon;timestamp;P1;durP1;ratioP1;P2;durP2;ratioP2
15130;SDS011;7666;50.920;4.628;2023-04-16T00:02:38;12.47;;;2.60;;
15130;SDS011;7666;50.920;4.628;2023-04-16T00:05:24;7.40;;;2.47;;
15130;SDS011;7666;50.920;4.628;2023-04-16T00:08:11;6.07;;;2.17;;
15130;SDS011;7666;50.920;4.628;2023-04-16T00:10:57;6.77;;;2.27;;
15130;SDS011;7666;50.920;4.628;2023-04-16T00:13:43;8.60;;;2.33;;
15130;SDS011;7666;50.920;4.628;2023-04-16T00:16:29;8.40;;;2.57;;
15130;SDS011;7666;50.920;4.628;2023-04-16T00:19:16;7.03;;;2.20;;
15130;SDS011;7666;50.920;4.628;2023-04-16T00:22:02;6.70;;;1.87;;
15130;SDS011;7666;50.920;4.628;2023-04-16T00:24:48;5.20;;;1.70;;
15130;SDS011;7666;50.920;4.628;2023-04-16T00:27:33;6.93;;;2.30;;
15130;SDS011;7666;50.920;4.628;2023-04-16T00:30:20;5.67;;;1.87;;
15130;SDS011;7666;50.920;4.628;2023-04-16T00:33:06;5.73;;;2.10;;
15130;SDS011;7666;50.920;4.628;2023-04-16T00:35:52;5.20;;;1.80;;
15130;SDS011;7666;50.920;4.628;2023-04-16T00:38:38;5.00;;;1.70;;
15130;SDS011;7666;50.920;4.628;2023-04-16T00:41:24;4.90;;;1.57;;
15130;SDS011;7666;50.920;4.628;2023-04-16T00:44:11;4.83;;;1.80;;
15130;SDS011;7666;50.920;4.628;2023-04-16T00:46:57;5.43;;;1.70;;
15130;SDS011;7666;50.920;4.628;2023-04-16T00:49:43;6.93;;;2.13;;
15130;SDS011;7666;50.920;4.628;2023-04-16T00:52:30;10.13;;;2.03;;
15130;SDS011;7666;50.920;4.628;2023-04-16T00:55:17;6.30;;;1.87;;
15130;SDS011;7666;50.920;4.628;2023-04-16T00:58:04;3.90;;;1.93;;
15130;SDS011;7666;50.920;4.628;2023-04-16T01:00:50;6.03;;;2.50;;
15130;SDS011;7666;50.920;4.628;2023-04-16T01:03:41;8.60;;;2.87;;
15130;SDS011;7666;50.920;4.628;2023-04-16T01:06:31;4.27;;;2.50;;
15130;SDS011;7666;50.920;4.628;2023-04-16T01:09:17;5.33;;;2.80;;
15130;SDS011;7666;50.920;4.628;2023-04-16T01:12:03;8.83;;;3.10;;
15130;SDS011;7666;50.920;4.628;2023-04-16T01:14:49;8.70;;;3.70;;
15130;SDS011;7666;50.920;4.628;2023-04-16T01:17:35;8.90;;;3.53;;
15130;SDS011;7666;50.920;4.628;2023-04-16T01:20:22;6.63;;;3.90;;
15130;SDS011;7666;50.920;4.628;2023-04-16T01:23:08;7.93;;;3.30;;
15130;SDS011;7666;50.920;4.628;2023-04-16T01:25:54;9.20;;;3.87;;
15130;SDS011;7666;50.920;4.628;2023-04-16T01:28:40;4.97;;;3.20;;
15130;SDS011;7666;50.920;4.628;2023-04-16T01:31:26;5.80;;;3.10;;
15130;SDS011;7666;50.920;4.628;2023-04-16T01:34:12;8.20;;;3.53;;
15130;SDS011;7666;50.920;4.628;2023-04-16T01:36:58;5.70;;;3.27;;
15130;SDS011;7666;50.920;4.628;2023-04-16T01:39:44;6.70;;;3.10;;
15130;SDS011;7666;50.920;4.628;2023-04-16T01:42:30;6.33;;;3.63;;
15130;SDS011;7666;50.920;4.628;2023-04-16T01:45:16;6.20;;;3.70;;
15130;SDS011;7666;50.920;4.628;2023-04-16T01:48:02;6.83;;;3.10;;
15130;SDS011;7666;50.920;4.628;2023-04-16T01:50:49;6.60;;;3.57;;
15130;SDS011;7666;50.920;4.628;2023-04-16T01:53:35;5.23;;;3.00;;
15130;SDS011;7666;50.920;4.628;2023-04-16T01:56:21;3.90;;;2.83;;
15130;SDS011;7666;50.920;4.628;2023-04-16T01:59:07;6.63;;;2.90;;
15130;SDS011;7666;50.920;4.628;2023-04-16T02:01:53;6.37;;;3.10;;
15130;SDS011;7666;50.920;4.628;2023-04-16T02:04:40;6.83;;;3.10;;
15130;SDS011;7666;50.920;4.628;2023-04-16T02:07:28;10.33;;;3.10;;
15130;SDS011;7666;50.920;4.628;2023-04-16T02:10:15;6.77;;;3.50;;
15130;SDS011;7666;50.920;4.628;2023-04-16T02:13:01;6.20;;;2.83;;
15130;SDS011;7666;50.920;4.628;2023-04-16T02:15:48;5.07;;;3.53;;
15130;SDS011;7666;50.920;4.628;2023-04-16T02:18:35;8.93;;;3.80;;
15130;SDS011;7666;50.920;4.628;2023-04-16T02:21:21;5.60;;;3.37;;
15130;SDS011;7666;50.920;4.628;2023-04-16T02:24:07;7.10;;;3.90;;
15130;SDS011;7666;50.920;4.628;2023-04-16T02:26:53;8.80;;;4.10;;
15130;SDS011;7666;50.920;4.628;2023-04-16T02:29:39;6.43;;;4.47;;
15130;SDS011;7666;50.920;4.628;2023-04-16T02:32:25;5.67;;;4.40;;
15130;SDS011;7666;50.920;4.628;2023-04-16T02:35:11;5.53;;;4.43;;
15130;SDS011;7666;50.920;4.628;2023-04-16T02:37:57;5.83;;;3.90;;
15130;SDS011;7666;50.920;4.628;2023-04-16T02:40:43;6.33;;;4.50;;
15130;SDS011;7666;50.920;4.628;2023-04-16T02:43:29;7.37;;;4.50;;
15130;SDS011;7666;50.920;4.628;2023-04-16T02:46:15;6.77;;;4.37;;
15130;SDS011;7666;50.920;4.628;2023-04-16T02:49:01;6.73;;;4.33;;
15130;SDS011;7666;50.920;4.628;2023-04-16T02:51:47;10.40;;;4.80;;
15130;SDS011;7666;50.920;4.628;2023-04-16T02:54:33;8.67;;;4.50;;
15130;SDS011;7666;50.920;4.628;2023-04-16T02:57:19;8.97;;;4.83;;
15130;SDS011;7666;50.920;4.628;2023-04-16T03:00:05;7.80;;;4.63;;
15130;SDS011;7666;50.920;4.628;2023-04-16T03:02:52;6.50;;;4.50;;
15130;SDS011;7666;50.920;4.628;2023-04-16T03:05:38;6.40;;;4.30;;
15130;SDS011;7666;50.920;4.628;2023-04-16T03:08:25;8.20;;;4.83;;
15130;SDS011;7666;50.920;4.628;2023-04-16T03:11:11;6.23;;;4.60;;
15130;SDS011;7666;50.920;4.628;2023-04-16T03:13:57;9.97;;;4.73;;
15130;SDS011;7666;50.920;4.628;2023-04-16T03:16:43;7.67;;;4.93;;
15130;SDS011;7666;50.920;4.628;2023-04-16T03:19:29;9.43;;;6.00;;
15130;SDS011;7666;50.920;4.628;2023-04-16T03:22:16;13.73;;;5.27;;
15130;SDS011;7666;50.920;4.628;2023-04-16T03:25:02;7.97;;;5.50;;
15130;SDS011;7666;50.920;4.628;2023-04-16T03:27:48;9.47;;;6.10;;
15130;SDS011;7666;50.920;4.628;2023-04-16T03:30:34;11.10;;;6.37;;
15130;SDS011;7666;50.920;4.628;2023-04-16T03:33:20;8.23;;;5.80;;
15130;SDS011;7666;50.920;4.628;2023-04-16T03:36:07;8.40;;;6.07;;
15130;SDS011;7666;50.920;4.628;2023-04-16T03:38:53;10.83;;;6.67;;
15130;SDS011;7666;50.920;4.628;2023-04-16T03:41:39;11.37;;;6.50;;
15130;SDS011;7666;50.920;4.628;2023-04-16T03:44:25;9.90;;;6.60;;
15130;SDS011;7666;50.920;4.628;2023-04-16T03:47:11;9.90;;;7.23;;
15130;SDS011;7666;50.920;4.628;2023-04-16T03:49:56;12.20;;;7.20;;
15130;SDS011;7666;50.920;4.628;2023-04-16T03:52:42;8.60;;;7.07;;
15130;SDS011;7666;50.920;4.628;2023-04-16T03:55:29;9.40;;;6.97;;
15130;SDS011;7666;50.920;4.628;2023-04-16T03:58:15;12.93;;;7.77;;
15130;SDS011;7666;50.920;4.628;2023-04-16T04:01:01;9.90;;;7.70;;
15130;SDS011;7666;50.920;4.628;2023-04-16T04:03:47;11.60;;;7.50;;
15130;SDS011;7666;50.920;4.628;2023-04-16T04:06:32;11.93;;;8.33;;
15130;SDS011;7666;50.920;4.628;2023-04-16T04:09:18;13.50;;;9.27;;
15130;SDS011;7666;50.920;4.628;2023-04-16T04:12:04;12.77;;;9.30;;
15130;SDS011;7666;50.920;4.628;2023-04-16T04:14:50;12.53;;;10.60;;
15130;SDS011;7666;50.920;4.628;2023-04-16T04:17:36;14.73;;;11.13;;
15130;SDS011;7666;50.920;4.628;2023-04-16T04:20:23;14.37;;;10.53;;
15130;SDS011;7666;50.920;4.628;2023-04-16T04:23:09;15.57;;;11.10;;
15130;SDS011;7666;50.920;4.628;2023-04-16T04:25:55;16.33;;;11.67;;
15130;SDS011;7666;50.920;4.628;2023-04-16T04:28:41;17.00;;;11.73;;
15130;SDS011;7666;50.920;4.628;2023-04-16T04:31:27;14.60;;;11.90;;
15130;SDS011;7666;50.920;4.628;2023-04-16T04:34:13;18.47;;;12.60;;
15130;SDS011;7666;50.920;4.628;2023-04-16T04:36:59;16.13;;;12.13;;
15130;SDS011;7666;50.920;4.628;2023-04-16T04:39:44;16.73;;;12.70;;
15130;SDS011;7666;50.920;4.628;2023-04-16T04:42:30;18.77;;;12.80;;
15130;SDS011;7666;50.920;4.628;2023-04-16T04:45:16;16.90;;;12.13;;
15130;SDS011;7666;50.920;4.628;2023-04-16T04:48:02;14.20;;;12.00;;
15130;SDS011;7666;50.920;4.628;2023-04-16T04:50:49;16.40;;;11.97;;
15130;SDS011;7666;50.920;4.628;2023-04-16T04:53:35;15.70;;;12.67;;
15130;SDS011;7666;50.920;4.628;2023-04-16T04:56:21;18.70;;;13.07;;
15130;SDS011;7666;50.920;4.628;2023-04-16T04:59:07;14.27;;;12.47;;
15130;SDS011;7666;50.920;4.628;2023-04-16T05:01:53;17.47;;;13.60;;
15130;SDS011;7666;50.920;4.628;2023-04-16T05:04:39;16.37;;;13.00;;
15130;SDS011;7666;50.920;4.628;2023-04-16T05:07:25;14.50;;;12.43;;
15130;SDS011;7666;50.920;4.628;2023-04-16T05:10:11;15.80;;;12.50;;
15130;SDS011;7666;50.920;4.628;2023-04-16T05:12:57;14.87;;;11.37;;
15130;SDS011;7666;50.920;4.628;2023-04-16T05:15:43;14.77;;;11.47;;
15130;SDS011;7666;50.920;4.628;2023-04-16T05:18:30;15.60;;;12.27;;
15130;SDS011;7666;50.920;4.628;2023-04-16T05:21:17;16.60;;;11.80;;
15130;SDS011;7666;50.920;4.628;2023-04-16T05:24:03;16.50;;;12.47;;
15130;SDS011;7666;50.920;4.628;2023-04-16T05:26:49;17.03;;;11.73;;
15130;SDS011;7666;50.920;4.628;2023-04-16T05:29:35;21.30;;;11.33;;
15130;SDS011;7666;50.920;4.628;2023-04-16T05:32:21;13.23;;;11.83;;
15130;SDS011;7666;50.920;4.628;2023-04-16T05:35:09;16.53;;;11.47;;
15130;SDS011;7666;50.920;4.628;2023-04-16T05:37:55;13.93;;;11.90;;
15130;SDS011;7666;50.920;4.628;2023-04-16T05:40:41;13.97;;;12.20;;
15130;SDS011;7666;50.920;4.628;2023-04-16T05:43:27;17.60;;;12.83;;
15130;SDS011;7666;50.920;4.628;2023-04-16T05:46:13;15.00;;;12.23;;
15130;SDS011;7666;50.920;4.628;2023-04-16T05:48:59;15.37;;;12.67;;
15130;SDS011;7666;50.920;4.628;2023-04-16T05:51:45;15.23;;;10.97;;
15130;SDS011;7666;50.920;4.628;2023-04-16T05:54:31;12.17;;;10.77;;
15130;SDS011;7666;50.920;4.628;2023-04-16T05:57:17;12.10;;;10.80;;
15130;SDS011;7666;50.920;4.628;2023-04-16T06:00:03;13.27;;;11.23;;
15130;SDS011;7666;50.920;4.628;2023-04-16T06:02:49;15.80;;;10.63;;
15130;SDS011;7666;50.920;4.628;2023-04-16T06:05:35;14.47;;;10.43;;
15130;SDS011;7666;50.920;4.628;2023-04-16T06:08:21;12.37;;;9.37;;
15130;SDS011;7666;50.920;4.628;2023-04-16T06:11:07;16.07;;;9.77;;
15130;SDS011;7666;50.920;4.628;2023-04-16T06:13:53;14.40;;;10.17;;
15130;SDS011;7666;50.920;4.628;2023-04-16T06:16:40;12.77;;;9.57;;
15130;SDS011;7666;50.920;4.628;2023-04-16T06:19:26;12.30;;;10.33;;
15130;SDS011;7666;50.920;4.628;2023-04-16T06:22:11;13.70;;;9.47;;
15130;SDS011;7666;50.920;4.628;2023-04-16T06:24:58;9.63;;;8.63;;
15130;SDS011;7666;50.920;4.628;2023-04-16T06:27:44;12.07;;;8.40;;
15130;SDS011;7666;50.920;4.628;2023-04-16T06:30:29;10.10;;;8.93;;
15130;SDS011;7666;50.920;4.628;2023-04-16T06:33:15;11.03;;;9.10;;
15130;SDS011;7666;50.920;4.628;2023-04-16T06:36:01;12.20;;;9.13;;
15130;SDS011;7666;50.920;4.628;2023-04-16T06:38:48;11.10;;;8.70;;
15130;SDS011;7666;50.920;4.628;2023-04-16T06:41:34;11.80;;;8.60;;
15130;SDS011;7666;50.920;4.628;2023-04-16T06:44:20;10.23;;;9.13;;
15130;SDS011;7666;50.920;4.628;2023-04-16T06:47:06;10.47;;;9.33;;
15130;SDS011;7666;50.920;4.628;2023-04-16T06:49:52;10.43;;;9.23;;
15130;SDS011;7666;50.920;4.628;2023-04-16T06:52:38;12.53;;;10.77;;
15130;SDS011;7666;50.920;4.628;2023-04-16T06:55:25;13.57;;;10.53;;
15130;SDS011;7666;50.920;4.628;2023-04-16T06:58:11;11.57;;;10.37;;
15130;SDS011;7666;50.920;4.628;2023-04-16T07:00:57;11.97;;;10.20;;
15130;SDS011;7666;50.920;4.628;2023-04-16T07:03:43;14.00;;;10.17;;
15130;SDS011;7666;50.920;4.628;2023-04-16T07:06:29;10.23;;;9.17;;
15130;SDS011;7666;50.920;4.628;2023-04-16T07:09:16;11.70;;;9.40;;
15130;SDS011;7666;50.920;4.628;2023-04-16T07:12:02;12.53;;;9.93;;
15130;SDS011;7666;50.920;4.628;2023-04-16T07:14:48;13.30;;;9.57;;
15130;SDS011;7666;50.920;4.628;2023-04-16T07:17:34;14.10;;;9.80;;
15130;SDS011;7666;50.920;4.628;2023-04-16T07:20:20;13.43;;;9.17;;
15130;SDS011;7666;50.920;4.628;2023-04-16T07:23:06;14.00;;;10.57;;
15130;SDS011;7666;50.920;4.628;2023-04-16T07:25:52;10.73;;;9.47;;
15130;SDS011;7666;50.920;4.628;2023-04-16T07:28:38;14.03;;;10.03;;
15130;SDS011;7666;50.920;4.628;2023-04-16T07:31:24;13.40;;;10.73;;
15130;SDS011;7666;50.920;4.628;2023-04-16T07:34:10;13.43;;;10.90;;
15130;SDS011;7666;50.920;4.628;2023-04-16T07:36:57;13.50;;;12.03;;
15130;SDS011;7666;50.920;4.628;2023-04-16T07:39:42;16.13;;;12.43;;
15130;SDS011;7666;50.920;4.628;2023-04-16T07:42:28;16.87;;;11.37;;
15130;SDS011;7666;50.920;4.628;2023-04-16T07:45:15;15.17;;;11.50;;
15130;SDS011;7666;50.920;4.628;2023-04-16T07:48:01;13.93;;;11.37;;
15130;SDS011;7666;50.920;4.628;2023-04-16T07:50:48;15.63;;;11.80;;
15130;SDS011;7666;50.920;4.628;2023-04-16T07:53:34;15.50;;;11.33;;
15130;SDS011;7666;50.920;4.628;2023-04-16T07:56:20;12.03;;;10.73;;
15130;SDS011;7666;50.920;4.628;2023-04-16T07:59:06;15.17;;;10.93;;
15130;SDS011;7666;50.920;4.628;2023-04-16T08:01:52;11.43;;;10.23;;
15130;SDS011;7666;50.920;4.628;2023-04-16T08:04:39;12.67;;;10.87;;
15130;SDS011;7666;50.920;4.628;2023-04-16T08:07:26;14.70;;;10.70;;
15130;SDS011;7666;50.920;4.628;2023-04-16T08:10:12;14.23;;;10.10;;
15130;SDS011;7666;50.920;4.628;2023-04-16T08:13:00;15.40;;;10.00;;
15130;SDS011;7666;50.920;4.628;2023-04-16T08:15:47;15.97;;;10.97;;
15130;SDS011;7666;50.920;4.628;2023-04-16T08:18:32;11.97;;;10.13;;
15130;SDS011;7666;50.920;4.628;2023-04-16T08:21:18;14.40;;;11.07;;
15130;SDS011;7666;50.920;4.628;2023-04-16T08:24:05;13.80;;;10.37;;
15130;SDS011;7666;50.920;4.628;2023-04-16T08:26:51;13.33;;;10.00;;
15130;SDS011;7666;50.920;4.628;2023-04-16T08:29:37;12.97;;;10.53;;
15130;SDS011;7666;50.920;4.628;2023-04-16T08:32:23;17.97;;;11.40;;
15130;SDS011;7666;50.920;4.628;2023-04-16T08:35:09;13.00;;;10.90;;
15130;SDS011;7666;50.920;4.628;2023-04-16T08:37:55;16.93;;;10.43;;
15130;SDS011;7666;50.920;4.628;2023-04-16T08:40:42;22.13;;;12.07;;
15130;SDS011;7666;50.920;4.628;2023-04-16T08:43:32;20.07;;;12.43;;
15130;SDS011;7666;50.920;4.628;2023-04-16T08:46:22;24.50;;;13.27;;
15130;SDS011;7666;50.920;4.628;2023-04-16T08:49:12;19.43;;;13.13;;
15130;SDS011;7666;50.920;4.628;2023-04-16T08:52:03;19.07;;;13.90;;
15130;SDS011;7666;50.920;4.628;2023-04-16T08:54:59;21.53;;;15.67;;
15130;SDS011;7666;50.920;4.628;2023-04-16T08:57:57;23.77;;;14.90;;
15130;SDS011;7666;50.920;4.628;2023-04-16T09:00:44;19.67;;;14.03;;
15130;SDS011;7666;50.920;4.628;2023-04-16T09:03:31;23.50;;;15.43;;
15130;SDS011;7666;50.920;4.628;2023-04-16T09:06:17;19.37;;;14.17;;
15130;SDS011;7666;50.920;4.628;2023-04-16T09:09:03;23.30;;;15.63;;
15130;SDS011;7666;50.920;4.628;2023-04-16T09:11:51;22.13;;;13.63;;
15130;SDS011;7666;50.920;4.628;2023-04-16T09:14:38;24.70;;;14.77;;
15130;SDS011;7666;50.920;4.628;2023-04-16T09:17:26;19.00;;;14.27;;
15130;SDS011;7666;50.920;4.628;2023-04-16T09:20:13;20.00;;;14.97;;
15130;SDS011;7666;50.920;4.628;2023-04-16T09:23:00;25.50;;;15.30;;
15130;SDS011;7666;50.920;4.628;2023-04-16T09:25:46;24.60;;;15.73;;
15130;SDS011;7666;50.920;4.628;2023-04-16T09:31:27;26.20;;;14.60;;
15130;SDS011;7666;50.920;4.628;2023-04-16T09:34:13;23.80;;;15.50;;
15130;SDS011;7666;50.920;4.628;2023-04-16T09:37:15;26.93;;;15.37;;
15130;SDS011;7666;50.920;4.628;2023-04-16T09:40:03;21.23;;;15.30;;
15130;SDS011;7666;50.920;4.628;2023-04-16T09:42:50;27.70;;;17.17;;
15130;SDS011;7666;50.920;4.628;2023-04-16T09:45:53;25.53;;;15.83;;
15130;SDS011;7666;50.920;4.628;2023-04-16T09:48:39;28.63;;;17.53;;
15130;SDS011;7666;50.920;4.628;2023-04-16T09:51:25;29.13;;;17.07;;
15130;SDS011;7666;50.920;4.628;2023-04-16T09:54:20;23.53;;;15.57;;
15130;SDS011;7666;50.920;4.628;2023-04-16T09:57:06;29.97;;;16.67;;
15130;SDS011;7666;50.920;4.628;2023-04-16T09:59:53;24.70;;;16.43;;
15130;SDS011;7666;50.920;4.628;2023-04-16T10:02:45;27.43;;;17.53;;
15130;SDS011;7666;50.920;4.628;2023-04-16T10:05:31;27.50;;;18.17;;
15130;SDS011;7666;50.920;4.628;2023-04-16T10:08:17;25.37;;;16.97;;
15130;SDS011;7666;50.920;4.628;2023-04-16T10:11:03;26.13;;;16.47;;
15130;SDS011;7666;50.920;4.628;2023-04-16T10:13:49;26.67;;;16.63;;
15130;SDS011;7666;50.920;4.628;2023-04-16T10:16:36;32.03;;;16.40;;
15130;SDS011;7666;50.920;4.628;2023-04-16T10:19:28;25.53;;;15.77;;
15130;SDS011;7666;50.920;4.628;2023-04-16T10:22:17;30.40;;;14.10;;
15130;SDS011;7666;50.920;4.628;2023-04-16T10:25:03;24.07;;;15.13;;
15130;SDS011;7666;50.920;4.628;2023-04-16T10:27:50;24.10;;;16.10;;
15130;SDS011;7666;50.920;4.628;2023-04-16T10:30:36;25.83;;;14.63;;
15130;SDS011;7666;50.920;4.628;2023-04-16T10:33:27;25.93;;;14.70;;
15130;SDS011;7666;50.920;4.628;2023-04-16T10:36:16;24.27;;;14.13;;
15130;SDS011;7666;50.920;4.628;2023-04-16T10:39:11;24.90;;;13.77;;
15130;SDS011;7666;50.920;4.628;2023-04-16T10:42:08;22.77;;;15.37;;
15130;SDS011;7666;50.920;4.628;2023-04-16T10:44:58;23.30;;;14.50;;
15130;SDS011;7666;50.920;4.628;2023-04-16T10:47:44;29.23;;;15.03;;
15130;SDS011;7666;50.920;4.628;2023-04-16T10:50:33;18.83;;;13.67;;
15130;SDS011;7666;50.920;4.628;2023-04-16T10:53:21;21.97;;;13.27;;
15130;SDS011;7666;50.920;4.628;2023-04-16T10:56:10;21.70;;;15.27;;
15130;SDS011;7666;50.920;4.628;2023-04-16T10:58:57;21.03;;;14.07;;
15130;SDS011;7666;50.920;4.628;2023-04-16T11:01:43;23.20;;;13.73;;
15130;SDS011;7666;50.920;4.628;2023-04-16T11:04:35;24.40;;;14.60;;
15130;SDS011;7666;50.920;4.628;2023-04-16T11:07:32;21.57;;;14.40;;
15130;SDS011;7666;50.920;4.628;2023-04-16T11:10:19;26.07;;;15.60;;
15130;SDS011;7666;50.920;4.628;2023-04-16T11:13:05;20.60;;;13.67;;
15130;SDS011;7666;50.920;4.628;2023-04-16T11:15:54;27.67;;;14.97;;
15130;SDS011;7666;50.920;4.628;2023-04-16T11:18:43;19.03;;;14.60;;
15130;SDS011;7666;50.920;4.628;2023-04-16T11:21:30;26.47;;;14.87;;
15130;SDS011;7666;50.920;4.628;2023-04-16T11:24:16;21.53;;;14.23;;
15130;SDS011;7666;50.920;4.628;2023-04-16T11:27:02;22.87;;;14.00;;
15130;SDS011;7666;50.920;4.628;2023-04-16T11:29:59;23.07;;;13.70;;
15130;SDS011;7666;50.920;4.628;2023-04-16T11:32:48;20.23;;;13.57;;
15130;SDS011;7666;50.920;4.628;2023-04-16T11:35:34;21.83;;;13.80;;
15130;SDS011;7666;50.920;4.628;2023-04-16T11:38:31;21.17;;;14.77;;
15130;SDS011;7666;50.920;4.628;2023-04-16T11:41:18;20.00;;;14.07;;
15130;SDS011;7666;50.920;4.628;2023-04-16T11:44:22;19.90;;;13.80;;
15130;SDS011;7666;50.920;4.628;2023-04-16T11:47:10;21.30;;;14.40;;
15130;SDS011;7666;50.920;4.628;2023-04-16T11:50:13;19.30;;;14.57;;
15130;SDS011;7666;50.920;4.628;2023-04-16T11:53:10;18.90;;;14.23;;
15130;SDS011;7666;50.920;4.628;2023-04-16T11:55:56;22.33;;;14.73;;
15130;SDS011;7666;50.920;4.628;2023-04-16T11:58:42;19.63;;;14.00;;
15130;SDS011;7666;50.920;4.628;2023-04-16T12:01:28;19.87;;;13.50;;
15130;SDS011;7666;50.920;4.628;2023-04-16T12:04:15;22.87;;;13.83;;
15130;SDS011;7666;50.920;4.628;2023-04-16T12:07:10;22.30;;;14.50;;
15130;SDS011;7666;50.920;4.628;2023-04-16T12:10:04;19.70;;;14.40;;
15130;SDS011;7666;50.920;4.628;2023-04-16T12:12:52;19.40;;;14.60;;
15130;SDS011;7666;50.920;4.628;2023-04-16T12:15:48;19.47;;;13.93;;
15130;SDS011;7666;50.920;4.628;2023-04-16T12:18:35;19.37;;;15.37;;
15130;SDS011;7666;50.920;4.628;2023-04-16T12:21:21;18.50;;;15.87;;
15130;SDS011;7666;50.920;4.628;2023-04-16T12:24:08;21.30;;;15.73;;
15130;SDS011;7666;50.920;4.628;2023-04-16T12:26:55;18.17;;;15.47;;
15130;SDS011;7666;50.920;4.628;2023-04-16T12:30:01;24.17;;;16.70;;
15130;SDS011;7666;50.920;4.628;2023-04-16T12:32:49;19.57;;;16.43;;
15130;SDS011;7666;50.920;4.628;2023-04-16T12:35:37;23.00;;;17.00;;
15130;SDS011;7666;50.920;4.628;2023-04-16T12:38:25;21.23;;;16.50;;
15130;SDS011;7666;50.920;4.628;2023-04-16T12:41:12;21.17;;;16.40;;
15130;SDS011;7666;50.920;4.628;2023-04-16T12:44:08;18.77;;;16.33;;
15130;SDS011;7666;50.920;4.628;2023-04-16T12:46:58;20.20;;;16.53;;
15130;SDS011;7666;50.920;4.628;2023-04-16T12:49:44;20.43;;;16.33;;
15130;SDS011;7666;50.920;4.628;2023-04-16T12:52:30;19.50;;;15.87;;
15130;SDS011;7666;50.920;4.628;2023-04-16T12:55:16;19.63;;;17.47;;
15130;SDS011;7666;50.920;4.628;2023-04-16T12:58:03;19.97;;;17.03;;
15130;SDS011;7666;50.920;4.628;2023-04-16T13:00:49;20.60;;;16.67;;
15130;SDS011;7666;50.920;4.628;2023-04-16T13:03:35;18.33;;;16.33;;
15130;SDS011;7666;50.920;4.628;2023-04-16T13:06:21;17.93;;;15.23;;
15130;SDS011;7666;50.920;4.628;2023-04-16T13:09:07;17.43;;;14.77;;
15130;SDS011;7666;50.920;4.628;2023-04-16T13:11:53;19.00;;;13.93;;
15130;SDS011;7666;50.920;4.628;2023-04-16T13:14:39;22.50;;;15.57;;
15130;SDS011;7666;50.920;4.628;2023-04-16T13:17:25;19.43;;;14.57;;
15130;SDS011;7666;50.920;4.628;2023-04-16T13:20:11;20.43;;;14.53;;
15130;SDS011;7666;50.920;4.628;2023-04-16T13:22:57;17.70;;;15.80;;
15130;SDS011;7666;50.920;4.628;2023-04-16T13:25:43;20.00;;;15.57;;
15130;SDS011;7666;50.920;4.628;2023-04-16T13:28:29;19.70;;;15.07;;
15130;SDS011;7666;50.920;4.628;2023-04-16T13:31:15;17.67;;;13.90;;
15130;SDS011;7666;50.920;4.628;2023-04-16T13:34:04;16.93;;;13.97;;
15130;SDS011;7666;50.920;4.628;2023-04-16T13:36:50;18.90;;;14.43;;
15130;SDS011;7666;50.920;4.628;2023-04-16T13:39:36;17.67;;;14.33;;
15130;SDS011;7666;50.920;4.628;2023-04-16T13:42:22;19.63;;;14.03;;
15130;SDS011;7666;50.920;4.628;2023-04-16T13:45:09;15.60;;;13.87;;
15130;SDS011;7666;50.920;4.628;2023-04-16T13:47:55;19.57;;;13.87;;
15130;SDS011;7666;50.920;4.628;2023-04-16T13:50:41;15.40;;;13.80;;
15130;SDS011;7666;50.920;4.628;2023-04-16T13:53:28;15.67;;;13.03;;
15130;SDS011;7666;50.920;4.628;2023-04-16T13:56:14;17.37;;;13.17;;
15130;SDS011;7666;50.920;4.628;2023-04-16T13:59:00;15.73;;;13.07;;
15130;SDS011;7666;50.920;4.628;2023-04-16T14:01:46;14.50;;;12.90;;
15130;SDS011;7666;50.920;4.628;2023-04-16T14:04:32;19.80;;;12.63;;
15130;SDS011;7666;50.920;4.628;2023-04-16T14:07:18;15.47;;;12.60;;
15130;SDS011;7666;50.920;4.628;2023-04-16T14:10:07;17.33;;;13.00;;
15130;SDS011;7666;50.920;4.628;2023-04-16T14:12:53;15.97;;;12.53;;
15130;SDS011;7666;50.920;4.628;2023-04-16T14:15:39;15.07;;;12.93;;
15130;SDS011;7666;50.920;4.628;2023-04-16T14:18:25;14.63;;;12.53;;
15130;SDS011;7666;50.920;4.628;2023-04-16T14:21:11;15.83;;;12.70;;
15130;SDS011;7666;50.920;4.628;2023-04-16T14:23:58;14.60;;;13.10;;
15130;SDS011;7666;50.920;4.628;2023-04-16T14:26:44;18.73;;;13.67;;
15130;SDS011;7666;50.920;4.628;2023-04-16T14:29:30;14.63;;;13.10;;
15130;SDS011;7666;50.920;4.628;2023-04-16T14:32:16;17.13;;;14.17;;
15130;SDS011;7666;50.920;4.628;2023-04-16T14:35:02;18.97;;;12.63;;
15130;SDS011;7666;50.920;4.628;2023-04-16T14:37:49;16.97;;;12.77;;
15130;SDS011;7666;50.920;4.628;2023-04-16T14:40:35;15.40;;;12.40;;
15130;SDS011;7666;50.920;4.628;2023-04-16T14:43:21;21.23;;;14.30;;
15130;SDS011;7666;50.920;4.628;2023-04-16T14:46:07;15.70;;;13.47;;
15130;SDS011;7666;50.920;4.628;2023-04-16T14:48:53;16.57;;;14.73;;
15130;SDS011;7666;50.920;4.628;2023-04-16T14:51:39;17.90;;;14.03;;
15130;SDS011;7666;50.920;4.628;2023-04-16T14:54:26;15.47;;;13.87;;
15130;SDS011;7666;50.920;4.628;2023-04-16T14:57:12;14.73;;;13.27;;
15130;SDS011;7666;50.920;4.628;2023-04-16T14:59:58;16.27;;;14.57;;
15130;SDS011;7666;50.920;4.628;2023-04-16T15:02:44;15.73;;;13.87;;
15130;SDS011;7666;50.920;4.628;2023-04-16T15:05:32;17.13;;;13.87;;
15130;SDS011;7666;50.920;4.628;2023-04-16T15:08:22;16.07;;;14.40;;
15130;SDS011;7666;50.920;4.628;2023-04-16T15:11:09;15.43;;;13.93;;
15130;SDS011;7666;50.920;4.628;2023-04-16T15:13:55;15.30;;;13.53;;
15130;SDS011;7666;50.920;4.628;2023-04-16T15:16:41;14.87;;;13.27;;
15130;SDS011;7666;50.920;4.628;2023-04-16T15:19:27;14.83;;;13.20;;
15130;SDS011;7666;50.920;4.628;2023-04-16T15:22:13;15.33;;;13.63;;
15130;SDS011;7666;50.920;4.628;2023-04-16T15:24:59;18.37;;;14.40;;
15130;SDS011;7666;50.920;4.628;2023-04-16T15:27:45;15.40;;;13.60;;
15130;SDS011;7666;50.920;4.628;2023-04-16T15:30:31;20.47;;;14.47;;
15130;SDS011;7666;50.920;4.628;2023-04-16T15:33:20;17.10;;;13.03;;
15130;SDS011;7666;50.920;4.628;2023-04-16T15:36:06;16.90;;;14.47;;
15130;SDS011;7666;50.920;4.628;2023-04-16T15:38:52;14.97;;;13.33;;
15130;SDS011;7666;50.920;4.628;2023-04-16T15:41:39;16.30;;;14.27;;
15130;SDS011;7666;50.920;4.628;2023-04-16T15:44:25;17.27;;;14.73;;
15130;SDS011;7666;50.920;4.628;2023-04-16T15:47:11;16.53;;;13.67;;
15130;SDS011;7666;50.920;4.628;2023-04-16T15:49:57;16.23;;;13.13;;
15130;SDS011;7666;50.920;4.628;2023-04-16T15:52:43;17.17;;;14.73;;
15130;SDS011;7666;50.920;4.628;2023-04-16T15:55:29;18.17;;;14.33;;
15130;SDS011;7666;50.920;4.628;2023-04-16T15:58:15;15.77;;;14.07;;
15130;SDS011;7666;50.920;4.628;2023-04-16T16:01:01;18.23;;;14.90;;
15130;SDS011;7666;50.920;4.628;2023-04-16T16:03:47;16.97;;;14.20;;
15130;SDS011;7666;50.920;4.628;2023-04-16T16:06:33;21.47;;;15.23;;
15130;SDS011;7666;50.920;4.628;2023-04-16T16:09:22;19.03;;;15.27;;
15130;SDS011;7666;50.920;4.628;2023-04-16T16:12:10;18.60;;;16.40;;
15130;SDS011;7666;50.920;4.628;2023-04-16T16:14:57;18.87;;;16.30;;
15130;SDS011;7666;50.920;4.628;2023-04-16T16:17:43;19.80;;;16.20;;
15130;SDS011;7666;50.920;4.628;2023-04-16T16:20:29;23.20;;;15.67;;
15130;SDS011;7666;50.920;4.628;2023-04-16T16:23:16;17.53;;;15.27;;
15130;SDS011;7666;50.920;4.628;2023-04-16T16:26:02;20.57;;;16.53;;
15130;SDS011;7666;50.920;4.628;2023-04-16T16:28:50;17.40;;;14.57;;
15130;SDS011;7666;50.920;4.628;2023-04-16T16:31:36;17.47;;;15.23;;
15130;SDS011;7666;50.920;4.628;2023-04-16T16:34:22;19.77;;;15.73;;
15130;SDS011;7666;50.920;4.628;2023-04-16T16:37:08;17.83;;;15.93;;
15130;SDS011;7666;50.920;4.628;2023-04-16T16:39:54;17.80;;;15.40;;
15130;SDS011;7666;50.920;4.628;2023-04-16T16:42:40;17.40;;;15.60;;